createdAt,value
2023-05-09T00:00:32.869Z,64
2023-05-09T00:01:32.817Z,64
2023-05-09T00:02:33.067Z,64
2023-05-09T00:03:32.845Z,65
2023-05-09T00:04:32.943Z,65
2023-05-09T00:05:32.833Z,65
2023-05-09T00:06:32.851Z,65
2023-05-09T00:07:32.826Z,65
2023-05-09T00:08:32.845Z,65
2023-05-09T00:09:32.785Z,65
2023-05-09T00:10:32.856Z,65
2023-05-09T00:11:32.882Z,65
2023-05-09T00:12:32.825Z,66
2023-05-09T00:13:32.822Z,66
2023-05-09T00:14:32.835Z,66
2023-05-09T00:15:32.797Z,66
2023-05-09T00:16:32.841Z,66
2023-05-09T00:17:32.832Z,66
2023-05-09T00:18:32.859Z,66
2023-05-09T00:19:32.817Z,66
2023-05-09T00:20:32.815Z,66
2023-05-09T00:21:32.892Z,66
2023-05-09T00:22:32.860Z,67
2023-05-09T00:23:32.818Z,67
2023-05-09T00:24:32.813Z,67
2023-05-09T00:25:32.801Z,67
2023-05-09T00:26:32.835Z,67
2023-05-09T00:27:32.821Z,67
2023-05-09T00:28:32.785Z,67
2023-05-09T00:29:32.797Z,67
2023-05-09T00:30:32.762Z,67
2023-05-09T00:31:32.869Z,67
2023-05-09T00:32:32.879Z,67
2023-05-09T00:33:32.794Z,67
2023-05-09T00:34:32.842Z,67
2023-05-09T00:35:32.854Z,67
2023-05-09T00:36:32.821Z,67
2023-05-09T00:37:32.836Z,68
2023-05-09T00:38:32.835Z,68
2023-05-09T00:39:32.843Z,68
2023-05-09T00:40:32.799Z,68
2023-05-09T00:41:32.816Z,68
2023-05-09T00:42:32.838Z,68
2023-05-09T00:43:32.818Z,68
2023-05-09T00:44:32.824Z,68
2023-05-09T00:45:32.799Z,68
2023-05-09T00:46:32.913Z,68
2023-05-09T00:47:32.826Z,68
2023-05-09T00:48:32.817Z,68
2023-05-09T00:49:32.828Z,68
2023-05-09T00:50:32.801Z,68
2023-05-09T00:51:32.810Z,68
2023-05-09T00:52:32.820Z,68
2023-05-09T00:53:32.801Z,68
2023-05-09T00:54:32.862Z,68
2023-05-09T00:55:32.811Z,69
2023-05-09T00:56:32.775Z,69
2023-05-09T00:57:32.791Z,69
2023-05-09T00:58:32.841Z,69
2023-05-09T00:59:32.857Z,69
2023-05-09T01:00:32.794Z,69
2023-05-09T01:01:32.890Z,69
2023-05-09T01:02:32.941Z,69
2023-05-09T01:03:32.950Z,69
2023-05-09T01:04:32.777Z,69
2023-05-09T01:05:32.777Z,69
2023-05-09T01:06:32.867Z,69
2023-05-09T01:07:32.828Z,69
2023-05-09T01:08:32.805Z,70
2023-05-09T01:09:32.821Z,70
2023-05-09T01:10:32.830Z,70
2023-05-09T01:11:32.815Z,70
2023-05-09T01:12:32.827Z,70
2023-05-09T01:13:32.807Z,70
2023-05-09T01:14:32.813Z,70
2023-05-09T01:15:32.830Z,70
2023-05-09T01:16:32.803Z,70
2023-05-09T01:17:32.857Z,70
2023-05-09T01:18:32.846Z,70
2023-05-09T01:19:32.816Z,70
2023-05-09T01:20:32.826Z,70
2023-05-09T01:21:32.811Z,70
2023-05-09T01:22:32.829Z,70
2023-05-09T01:23:32.833Z,71
2023-05-09T01:24:32.816Z,70
2023-05-09T01:25:32.929Z,71
2023-05-09T01:26:32.833Z,71
2023-05-09T01:27:32.848Z,71
2023-05-09T01:28:32.816Z,71
2023-05-09T01:29:32.831Z,71
2023-05-09T01:30:32.798Z,71
2023-05-09T01:31:32.837Z,71
2023-05-09T01:32:32.817Z,71
2023-05-09T01:33:32.830Z,71
2023-05-09T01:34:32.824Z,71
2023-05-09T01:35:32.872Z,72
2023-05-09T01:36:32.802Z,72
2023-05-09T01:37:32.845Z,72
2023-05-09T01:38:32.845Z,72
2023-05-09T01:39:32.831Z,72
2023-05-09T01:40:32.958Z,72
2023-05-09T01:41:32.973Z,72
2023-05-09T01:42:32.919Z,72
2023-05-09T01:43:32.920Z,72
2023-05-09T01:44:32.980Z,73
2023-05-09T01:45:32.973Z,73
2023-05-09T01:46:33.048Z,73
2023-05-09T01:47:32.968Z,73
2023-05-09T01:48:32.883Z,73
2023-05-09T01:49:32.976Z,74
2023-05-09T01:50:32.936Z,74
2023-05-09T01:51:32.922Z,74
2023-05-09T01:52:32.932Z,74
2023-05-09T01:53:32.916Z,74
2023-05-09T01:54:33.030Z,74
2023-05-09T01:55:32.953Z,74
2023-05-09T01:56:32.911Z,74
2023-05-09T01:57:32.996Z,75
2023-05-09T01:58:32.863Z,75
2023-05-09T01:59:32.812Z,75
2023-05-09T02:00:32.835Z,75
2023-05-09T02:01:32.806Z,75
2023-05-09T02:02:32.939Z,76
2023-05-09T02:03:32.997Z,76
2023-05-09T02:04:32.835Z,76
2023-05-09T02:05:32.811Z,76
2023-05-09T02:06:32.829Z,76
2023-05-09T02:07:32.818Z,76
2023-05-09T02:08:32.877Z,76
2023-05-09T02:09:32.859Z,76
2023-05-09T02:10:32.818Z,76
2023-05-09T02:11:32.816Z,76
2023-05-09T02:12:32.805Z,76
2023-05-09T02:13:32.790Z,77
2023-05-09T02:14:32.816Z,77
2023-05-09T02:15:32.808Z,77
2023-05-09T02:16:32.828Z,77
2023-05-09T02:17:32.849Z,77
2023-05-09T02:18:32.838Z,77
2023-05-09T02:19:32.821Z,77
2023-05-09T02:20:32.786Z,77
2023-05-09T02:21:32.779Z,77
2023-05-09T02:22:32.805Z,77
2023-05-09T02:23:32.791Z,77
2023-05-09T02:24:32.797Z,78
2023-05-09T02:25:32.815Z,78
2023-05-09T02:26:32.826Z,78
2023-05-09T02:27:32.799Z,78
2023-05-09T02:28:32.794Z,78
2023-05-09T02:29:32.804Z,78
2023-05-09T02:30:32.767Z,78
2023-05-09T02:31:32.837Z,78
2023-05-09T02:32:32.816Z,78
2023-05-09T02:33:32.781Z,79
2023-05-09T02:34:32.791Z,79
2023-05-09T02:35:32.819Z,79
2023-05-09T02:36:32.821Z,79
2023-05-09T02:37:32.769Z,79
2023-05-09T02:38:32.838Z,79
2023-05-09T02:39:32.791Z,79
2023-05-09T02:40:32.864Z,79
2023-05-09T02:41:32.785Z,79
2023-05-09T02:42:32.846Z,79
2023-05-09T02:43:32.808Z,80
2023-05-09T02:44:32.817Z,80
2023-05-09T02:45:32.802Z,80
2023-05-09T02:46:33.002Z,80
2023-05-09T02:47:32.820Z,80
2023-05-09T02:48:32.823Z,81
2023-05-09T02:49:32.932Z,81
2023-05-09T02:50:32.805Z,81
2023-05-09T02:51:32.804Z,81
2023-05-09T02:52:32.805Z,81
2023-05-09T02:53:32.787Z,81
2023-05-09T02:54:32.819Z,81
2023-05-09T02:55:32.804Z,81
2023-05-09T02:56:32.968Z,81
2023-05-09T02:57:32.813Z,81
2023-05-09T02:58:32.811Z,81
2023-05-09T02:59:32.804Z,81
2023-05-09T03:00:32.805Z,81
2023-05-09T03:01:32.818Z,81
2023-05-09T03:02:32.884Z,81
2023-05-09T03:03:32.971Z,81
2023-05-09T03:04:32.813Z,81
2023-05-09T03:05:32.952Z,81
2023-05-09T03:06:32.898Z,82
2023-05-09T03:07:32.870Z,82
2023-05-09T03:08:32.882Z,82
2023-05-09T03:09:32.785Z,82
2023-05-09T03:10:32.925Z,82
2023-05-09T03:11:32.819Z,82
2023-05-09T03:12:32.933Z,82
2023-05-09T03:13:32.904Z,82
2023-05-09T03:14:32.962Z,82
2023-05-09T03:15:32.861Z,82
2023-05-09T03:16:32.828Z,82
2023-05-09T03:17:32.844Z,82
2023-05-09T03:18:32.806Z,82
2023-05-09T03:19:32.880Z,82
2023-05-09T03:20:32.799Z,82
2023-05-09T03:21:32.871Z,82
2023-05-09T03:22:32.857Z,82
2023-05-09T03:23:32.971Z,82
2023-05-09T03:24:32.982Z,82
2023-05-09T03:25:32.887Z,82
2023-05-09T03:26:32.910Z,82
2023-05-09T03:27:32.943Z,82
2023-05-09T03:28:32.877Z,82
2023-05-09T03:29:32.785Z,82
2023-05-09T03:30:32.874Z,82
2023-05-09T03:31:33.074Z,82
2023-05-09T03:32:32.887Z,82
2023-05-09T03:33:32.893Z,82
2023-05-09T03:34:32.864Z,82
2023-05-09T03:35:32.790Z,82
2023-05-09T03:36:32.812Z,82
2023-05-09T03:37:32.825Z,82
2023-05-09T03:38:32.953Z,82
2023-05-09T03:39:32.997Z,82
2023-05-09T03:40:32.907Z,82
2023-05-09T03:41:32.892Z,82
2023-05-09T03:42:32.854Z,82
2023-05-09T03:43:32.941Z,82
2023-05-09T03:44:32.929Z,82
2023-05-09T03:45:32.798Z,82
2023-05-09T03:46:32.871Z,82
2023-05-09T03:47:32.964Z,82
2023-05-09T03:48:32.822Z,82
2023-05-09T03:49:32.841Z,82
2023-05-09T03:50:32.785Z,81
2023-05-09T03:51:32.823Z,81
2023-05-09T03:52:32.796Z,81
2023-05-09T03:53:32.783Z,81
2023-05-09T03:54:32.862Z,81
2023-05-09T03:55:32.829Z,81
2023-05-09T03:56:32.811Z,81
2023-05-09T03:57:32.794Z,81
2023-05-09T03:58:32.796Z,81
2023-05-09T03:59:32.829Z,80
2023-05-09T04:00:32.808Z,80
2023-05-09T04:01:32.953Z,80
2023-05-09T04:02:32.889Z,80
2023-05-09T04:03:32.943Z,80
2023-05-09T04:04:32.806Z,80
2023-05-09T04:05:32.813Z,79
2023-05-09T04:06:32.789Z,79
2023-05-09T04:07:32.790Z,79
2023-05-09T04:08:32.802Z,79
2023-05-09T04:09:32.922Z,79
2023-05-09T04:10:32.789Z,78
2023-05-09T04:11:32.824Z,78
2023-05-09T04:12:32.799Z,78
2023-05-09T04:13:32.792Z,78
2023-05-09T04:14:32.789Z,78
2023-05-09T04:15:32.818Z,77
2023-05-09T04:16:32.835Z,77
2023-05-09T04:17:32.864Z,77
2023-05-09T04:18:32.780Z,77
2023-05-09T04:19:32.831Z,77
2023-05-09T04:20:32.800Z,76
2023-05-09T04:21:32.806Z,76
2023-05-09T04:22:32.822Z,76
2023-05-09T04:23:32.800Z,76
2023-05-09T04:24:32.782Z,76
2023-05-09T04:25:32.785Z,75
2023-05-09T04:26:32.931Z,75
2023-05-09T04:27:32.830Z,75
2023-05-09T04:28:32.824Z,75
2023-05-09T04:29:32.805Z,74
2023-05-09T04:30:32.868Z,74
2023-05-09T04:31:32.882Z,74
2023-05-09T04:32:32.856Z,73
2023-05-09T04:33:32.788Z,73
2023-05-09T04:34:32.790Z,72
2023-05-09T04:35:32.817Z,72
2023-05-09T04:36:32.856Z,71
2023-05-09T04:37:32.844Z,71
2023-05-09T04:38:32.858Z,70
2023-05-09T04:39:32.786Z,70
2023-05-09T04:40:32.800Z,69
2023-05-09T04:41:32.880Z,69
2023-05-09T04:42:32.758Z,68
2023-05-09T04:43:32.871Z,68
2023-05-09T04:44:32.819Z,67
2023-05-09T04:45:32.798Z,67
2023-05-09T04:46:32.877Z,67
2023-05-09T04:47:32.822Z,66
2023-05-09T04:48:32.813Z,66
2023-05-09T04:49:32.820Z,66
2023-05-09T04:50:32.833Z,66
2023-05-09T04:51:32.801Z,65
2023-05-09T04:52:32.820Z,65
2023-05-09T04:53:32.836Z,65
2023-05-09T04:54:32.772Z,65
2023-05-09T04:55:32.810Z,64
2023-05-09T04:56:32.820Z,64
2023-05-09T04:57:32.818Z,64
2023-05-09T04:58:32.788Z,64
2023-05-09T04:59:32.819Z,64
2023-05-09T05:00:32.838Z,63
2023-05-09T05:01:32.840Z,63
2023-05-09T05:02:32.856Z,62
2023-05-09T05:03:32.811Z,62
2023-05-09T05:04:32.836Z,62
2023-05-09T05:05:34.513Z,62
2023-05-09T05:06:32.966Z,62
2023-05-09T05:07:32.817Z,62
2023-05-09T05:08:33.027Z,62
2023-05-09T05:09:32.829Z,62
2023-05-09T05:10:32.789Z,62
2023-05-09T05:11:32.778Z,62
2023-05-09T05:12:32.819Z,62
2023-05-09T05:13:33.887Z,62
2023-05-09T05:14:39.359Z,62
2023-05-09T05:15:43.364Z,62
2023-05-09T05:16:47.431Z,62
2023-05-09T05:17:51.532Z,61
2023-05-09T05:18:55.371Z,61
2023-05-09T05:19:59.338Z,61
2023-05-09T05:21:03.353Z,60
2023-05-09T05:22:07.384Z,59
2023-05-09T05:23:11.386Z,59
2023-05-09T05:24:16.364Z,59
2023-05-09T05:25:19.381Z,59
2023-05-09T05:26:23.340Z,59
2023-05-09T05:27:27.375Z,58
2023-05-09T05:28:31.326Z,58
2023-05-09T05:29:32.835Z,58
2023-05-09T05:30:34.205Z,58
2023-05-09T05:31:32.832Z,58
2023-05-09T05:32:32.846Z,58
2023-05-09T05:33:32.848Z,58
2023-05-09T05:34:32.822Z,57
2023-05-09T05:35:32.897Z,58
2023-05-09T05:36:32.791Z,57
2023-05-09T05:37:32.792Z,56
2023-05-09T05:38:32.797Z,57
2023-05-09T05:39:32.790Z,56
2023-05-09T05:40:32.787Z,56
2023-05-09T05:41:32.813Z,56
2023-05-09T05:42:32.810Z,56
2023-05-09T05:43:32.796Z,55
2023-05-09T05:44:32.786Z,55
2023-05-09T05:45:32.846Z,56
2023-05-09T05:46:32.800Z,54
2023-05-09T05:47:32.820Z,54
2023-05-09T05:48:32.782Z,54
2023-05-09T05:49:32.857Z,54
2023-05-09T05:50:32.862Z,54
2023-05-09T05:51:32.837Z,54
2023-05-09T05:52:32.785Z,54
2023-05-09T05:53:32.936Z,54
2023-05-09T05:54:32.823Z,53
2023-05-09T05:55:32.783Z,53
2023-05-09T05:56:32.786Z,52
2023-05-09T05:57:32.749Z,51
2023-05-09T05:58:32.874Z,52
2023-05-09T05:59:32.845Z,52
2023-05-09T06:00:32.808Z,52
2023-05-09T06:01:32.774Z,53
2023-05-09T06:02:32.894Z,53
2023-05-09T06:03:32.920Z,52
2023-05-09T06:04:32.826Z,51
2023-05-09T06:05:32.751Z,51
2023-05-09T06:06:32.848Z,52
2023-05-09T06:07:32.771Z,52
2023-05-09T06:08:32.833Z,52
2023-05-09T06:09:32.773Z,52
2023-05-09T06:10:32.875Z,52
2023-05-09T06:11:32.757Z,52
2023-05-09T06:12:32.797Z,52
2023-05-09T06:13:32.764Z,52
2023-05-09T06:14:32.781Z,52
2023-05-09T06:15:32.800Z,52
2023-05-09T06:16:32.822Z,52
2023-05-09T06:17:32.790Z,52
2023-05-09T06:18:32.822Z,52
2023-05-09T06:19:32.777Z,53
2023-05-09T06:20:32.780Z,52
2023-05-09T06:21:32.816Z,52
2023-05-09T06:22:32.805Z,53
2023-05-09T06:23:32.775Z,52
2023-05-09T06:24:36.191Z,52
2023-05-09T06:25:32.769Z,52
2023-05-09T06:26:32.813Z,52
2023-05-09T06:27:32.817Z,53
2023-05-09T06:28:32.815Z,53
2023-05-09T06:29:32.783Z,53
2023-05-09T06:30:32.862Z,53
2023-05-09T06:31:32.819Z,53
2023-05-09T06:32:32.891Z,53
2023-05-09T06:33:32.798Z,53
2023-05-09T06:34:32.750Z,52
2023-05-09T06:35:32.788Z,52
2023-05-09T06:36:32.850Z,52
2023-05-09T06:37:32.837Z,51
2023-05-09T06:38:32.772Z,52
2023-05-09T06:39:32.779Z,52
2023-05-09T06:40:32.791Z,52
2023-05-09T06:41:32.826Z,51
2023-05-09T06:42:32.770Z,51
2023-05-09T06:43:32.769Z,52
2023-05-09T06:44:32.791Z,52
2023-05-09T06:45:32.806Z,52
2023-05-09T06:46:32.825Z,52
2023-05-09T06:47:32.806Z,52
2023-05-09T06:48:32.784Z,52
2023-05-09T06:49:32.785Z,52
2023-05-09T06:50:33.124Z,52
2023-05-09T06:51:32.812Z,52
2023-05-09T06:52:32.802Z,51
2023-05-09T06:53:32.786Z,51
2023-05-09T06:54:32.756Z,51
2023-05-09T06:55:32.837Z,50
2023-05-09T06:56:32.792Z,51
2023-05-09T06:57:32.841Z,51
2023-05-09T06:58:32.774Z,51
2023-05-09T06:59:33.018Z,51
2023-05-09T07:00:32.816Z,51
2023-05-09T07:01:32.836Z,50
2023-05-09T07:02:32.895Z,50
2023-05-09T07:03:32.766Z,50
2023-05-09T07:04:32.845Z,50
2023-05-09T07:05:32.976Z,50
2023-05-09T07:06:32.812Z,50
2023-05-09T07:07:32.800Z,50
2023-05-09T07:08:32.807Z,50
2023-05-09T07:09:32.816Z,49
2023-05-09T07:10:32.769Z,49
2023-05-09T07:11:32.781Z,49
2023-05-09T07:12:32.766Z,50
2023-05-09T07:13:32.832Z,50
2023-05-09T07:14:32.810Z,49
2023-05-09T07:15:41.181Z,48
2023-05-09T07:16:34.109Z,48
2023-05-09T07:17:32.886Z,48
2023-05-09T07:18:32.779Z,47
2023-05-09T07:19:32.817Z,47
2023-05-09T07:20:32.814Z,48
2023-05-09T07:21:32.806Z,48
2023-05-09T07:22:34.786Z,48
2023-05-09T07:23:32.844Z,46
2023-05-09T07:24:32.785Z,47
2023-05-09T07:25:32.798Z,47
2023-05-09T07:26:32.859Z,47
2023-05-09T07:27:32.794Z,47
2023-05-09T07:28:32.806Z,46
2023-05-09T07:29:32.838Z,46
2023-05-09T07:30:32.753Z,46
2023-05-09T07:31:35.154Z,46
2023-05-09T07:32:32.813Z,46
2023-05-09T07:33:32.804Z,46
2023-05-09T07:34:32.762Z,46
2023-05-09T07:35:32.763Z,45
2023-05-09T07:36:34.738Z,45
2023-05-09T07:37:32.821Z,44
2023-05-09T07:38:32.871Z,44
2023-05-09T07:39:32.825Z,44
2023-05-09T07:40:32.799Z,45
2023-05-09T07:41:32.796Z,44
2023-05-09T07:42:32.790Z,45
2023-05-09T07:43:32.753Z,45
2023-05-09T07:44:32.807Z,44
2023-05-09T07:45:32.854Z,44
2023-05-09T07:46:32.781Z,43
2023-05-09T07:47:32.839Z,43
2023-05-09T07:48:32.825Z,44
2023-05-09T07:49:32.758Z,43
2023-05-09T07:50:32.807Z,44
2023-05-09T07:51:32.813Z,43
2023-05-09T07:52:32.907Z,43
2023-05-09T07:53:32.757Z,43
2023-05-09T07:54:32.818Z,43
2023-05-09T07:55:32.765Z,43
2023-05-09T07:56:32.791Z,43
2023-05-09T07:57:32.871Z,43
2023-05-09T07:58:32.797Z,43
2023-05-09T07:59:32.807Z,43
2023-05-09T08:00:32.769Z,43
2023-05-09T08:01:32.806Z,43
2023-05-09T08:02:32.919Z,43
2023-05-09T08:03:32.966Z,43
2023-05-09T08:04:32.922Z,43
2023-05-09T08:05:32.770Z,42
2023-05-09T08:06:32.772Z,43
2023-05-09T08:07:32.805Z,43
2023-05-09T08:08:32.772Z,42
2023-05-09T08:09:32.778Z,42
2023-05-09T08:10:32.772Z,41
2023-05-09T08:11:32.779Z,42
2023-05-09T08:12:32.796Z,41
2023-05-09T08:13:32.759Z,41
2023-05-09T08:14:32.816Z,42
2023-05-09T08:15:32.762Z,41
2023-05-09T08:16:32.872Z,41
2023-05-09T08:17:32.847Z,40
2023-05-09T08:18:32.800Z,40
2023-05-09T08:19:32.732Z,40
2023-05-09T08:20:32.787Z,40
2023-05-09T08:21:32.804Z,40
2023-05-09T08:22:32.771Z,40
2023-05-09T08:23:32.769Z,40
2023-05-09T08:24:32.813Z,39
2023-05-09T08:25:32.787Z,39
2023-05-09T08:26:32.779Z,40
2023-05-09T08:27:32.772Z,39
2023-05-09T08:28:32.810Z,39
2023-05-09T08:29:32.839Z,39
2023-05-09T08:30:32.753Z,38
2023-05-09T08:31:32.903Z,38
2023-05-09T08:32:32.849Z,38
2023-05-09T08:33:32.771Z,38
2023-05-09T08:34:32.754Z,38
2023-05-09T08:35:32.791Z,37
2023-05-09T08:36:32.742Z,37
2023-05-09T08:37:32.779Z,37
2023-05-09T08:38:32.807Z,38
2023-05-09T08:39:32.805Z,37
2023-05-09T08:40:32.755Z,37
2023-05-09T08:41:32.795Z,37
2023-05-09T08:42:32.750Z,37
2023-05-09T08:43:32.796Z,38
2023-05-09T08:44:32.772Z,38
2023-05-09T08:45:32.795Z,38
2023-05-09T08:46:32.820Z,37
2023-05-09T08:47:32.807Z,37
2023-05-09T08:48:35.865Z,36
2023-05-09T08:49:32.799Z,35
2023-05-09T08:50:32.782Z,35
2023-05-09T08:51:32.792Z,35
2023-05-09T08:52:32.752Z,35
2023-05-09T08:53:32.810Z,35
2023-05-09T08:54:32.753Z,35
2023-05-09T08:55:32.817Z,35
2023-05-09T08:56:32.835Z,35
2023-05-09T08:57:32.898Z,35
2023-05-09T08:58:32.779Z,34
2023-05-09T08:59:32.804Z,33
2023-05-09T09:00:32.783Z,32
2023-05-09T09:01:32.826Z,33
2023-05-09T09:02:32.796Z,34
2023-05-09T09:03:32.791Z,34
2023-05-09T09:04:32.821Z,35
2023-05-09T09:05:41.159Z,34
2023-05-09T09:06:32.786Z,34
2023-05-09T09:07:32.797Z,34
2023-05-09T09:08:32.775Z,34
2023-05-09T09:09:32.800Z,34
2023-05-09T09:10:32.813Z,33
2023-05-09T09:11:32.849Z,33
2023-05-09T09:12:32.781Z,33
2023-05-09T09:13:32.891Z,33
2023-05-09T09:14:32.787Z,33
2023-05-09T09:15:32.885Z,34
2023-05-09T09:16:32.786Z,34
2023-05-09T09:17:32.793Z,34
2023-05-09T09:18:32.758Z,33
2023-05-09T09:19:32.818Z,32
2023-05-09T09:20:32.771Z,32
2023-05-09T09:21:32.819Z,33
2023-05-09T09:22:32.774Z,34
2023-05-09T09:23:32.791Z,33
2023-05-09T09:24:32.775Z,33
2023-05-09T09:25:32.754Z,33
2023-05-09T09:26:32.754Z,34
2023-05-09T09:27:32.792Z,34
2023-05-09T09:28:32.732Z,34
2023-05-09T09:29:32.776Z,34
2023-05-09T09:30:32.776Z,34
2023-05-09T09:31:32.808Z,34
2023-05-09T09:32:32.835Z,33
2023-05-09T09:33:32.789Z,34
2023-05-09T09:34:32.833Z,33
2023-05-09T09:35:32.762Z,33
2023-05-09T09:36:32.846Z,33
2023-05-09T09:37:32.754Z,33
2023-05-09T09:38:32.786Z,33
2023-05-09T09:39:32.809Z,33
2023-05-09T09:40:32.775Z,33
2023-05-09T09:41:32.777Z,33
2023-05-09T09:42:32.801Z,34
2023-05-09T09:43:32.770Z,35
2023-05-09T09:44:32.797Z,35
2023-05-09T09:45:32.762Z,35
2023-05-09T09:46:32.862Z,35
2023-05-09T09:47:32.788Z,35
2023-05-09T09:48:32.837Z,35
2023-05-09T09:49:32.818Z,34
2023-05-09T09:50:32.776Z,34
2023-05-09T09:51:32.751Z,35
2023-05-09T09:52:32.822Z,34
2023-05-09T09:53:32.762Z,34
2023-05-09T09:54:32.834Z,33
2023-05-09T09:55:32.785Z,33
2023-05-09T09:56:32.844Z,33
2023-05-09T09:57:32.744Z,33
2023-05-09T09:58:32.783Z,34
2023-05-09T09:59:32.843Z,34
2023-05-09T10:00:32.799Z,34
2023-05-09T10:01:32.897Z,34
2023-05-09T10:02:32.859Z,34
2023-05-09T10:03:32.995Z,34
2023-05-09T10:04:32.802Z,34
2023-05-09T10:05:32.749Z,34
2023-05-09T10:06:32.761Z,33
2023-05-09T10:07:32.821Z,33
2023-05-09T10:08:32.749Z,34
2023-05-09T10:09:32.754Z,34
2023-05-09T10:10:32.781Z,34
2023-05-09T10:11:32.815Z,33
2023-05-09T10:12:32.761Z,33
2023-05-09T10:13:32.731Z,33
2023-05-09T10:14:34.323Z,33
2023-05-09T10:15:41.498Z,34
2023-05-09T10:16:43.757Z,34
2023-05-09T10:17:32.943Z,34
2023-05-09T10:18:32.918Z,34
2023-05-09T10:19:32.797Z,34
2023-05-09T10:20:32.848Z,34
2023-05-09T10:21:32.825Z,34
2023-05-09T10:22:32.779Z,34
2023-05-09T10:23:32.809Z,34
2023-05-09T10:24:32.755Z,33
2023-05-09T10:25:32.759Z,33
2023-05-09T10:26:32.756Z,34
2023-05-09T10:27:32.854Z,34
2023-05-09T10:28:32.722Z,35
2023-05-09T10:29:32.782Z,35
2023-05-09T10:30:34.077Z,35
2023-05-09T10:31:32.830Z,35
2023-05-09T10:32:32.828Z,35
2023-05-09T10:33:32.755Z,35
2023-05-09T10:34:32.846Z,35
2023-05-09T10:35:36.038Z,34
2023-05-09T10:36:46.878Z,35
2023-05-09T10:37:50.841Z,35
2023-05-09T10:38:54.851Z,35
2023-05-09T10:39:58.879Z,35
2023-05-09T10:41:02.877Z,35
2023-05-09T10:42:06.865Z,35
2023-05-09T10:43:10.837Z,35
2023-05-09T10:44:14.922Z,34
2023-05-09T10:45:18.908Z,34
2023-05-09T10:46:22.902Z,34
2023-05-09T10:47:26.907Z,34
2023-05-09T10:48:30.864Z,34
2023-05-09T10:49:34.276Z,34
2023-05-09T10:50:32.777Z,34
2023-05-09T10:51:32.738Z,34
2023-05-09T10:52:32.766Z,34
2023-05-09T10:53:32.755Z,34
2023-05-09T10:54:32.744Z,34
2023-05-09T10:55:32.797Z,34
2023-05-09T10:56:32.805Z,34
2023-05-09T10:57:32.815Z,34
2023-05-09T10:58:32.744Z,34
2023-05-09T10:59:32.725Z,35
2023-05-09T11:00:32.783Z,35
2023-05-09T11:01:32.905Z,34
2023-05-09T11:02:32.852Z,35
2023-05-09T11:03:32.940Z,35
2023-05-09T11:04:32.771Z,35
2023-05-09T11:05:32.760Z,35
2023-05-09T11:06:32.744Z,34
2023-05-09T11:07:32.742Z,34
2023-05-09T11:08:32.790Z,34
2023-05-09T11:09:32.826Z,34
2023-05-09T11:10:32.835Z,34
2023-05-09T11:11:32.758Z,33
2023-05-09T11:12:32.802Z,34
2023-05-09T11:13:32.789Z,34
2023-05-09T11:14:32.820Z,35
2023-05-09T11:15:32.783Z,34
2023-05-09T11:16:32.823Z,34
2023-05-09T11:17:32.888Z,34
2023-05-09T11:18:32.829Z,34
2023-05-09T11:19:32.751Z,34
2023-05-09T11:20:32.775Z,34
2023-05-09T11:21:32.738Z,34
2023-05-09T11:22:32.974Z,34
2023-05-09T11:23:32.720Z,34
2023-05-09T11:24:32.772Z,34
2023-05-09T11:25:32.737Z,34
2023-05-09T11:26:32.758Z,33
2023-05-09T11:27:32.778Z,33
2023-05-09T11:28:32.796Z,33
2023-05-09T11:29:32.933Z,34
2023-05-09T11:30:32.774Z,34
2023-05-09T11:31:32.780Z,33
2023-05-09T11:32:32.813Z,33
2023-05-09T11:33:32.733Z,34
2023-05-09T11:34:32.755Z,33
2023-05-09T11:35:32.720Z,34
2023-05-09T11:36:32.774Z,33
2023-05-09T11:37:32.743Z,34
2023-05-09T11:38:32.829Z,34
2023-05-09T11:39:32.788Z,34
2023-05-09T11:40:32.772Z,34
2023-05-09T11:41:32.758Z,34
2023-05-09T11:42:32.779Z,34
2023-05-09T11:43:32.762Z,35
2023-05-09T11:44:32.762Z,34
2023-05-09T11:45:32.852Z,34
2023-05-09T11:46:32.838Z,34
2023-05-09T11:47:32.846Z,34
2023-05-09T11:48:32.770Z,34
2023-05-09T11:49:32.730Z,34
2023-05-09T11:50:32.758Z,34
2023-05-09T11:51:32.790Z,34
2023-05-09T11:52:32.781Z,34
2023-05-09T11:53:32.788Z,34
2023-05-09T11:54:32.774Z,34
2023-05-09T11:55:32.800Z,34
2023-05-09T11:56:32.760Z,34
2023-05-09T11:57:32.744Z,34
2023-05-09T11:58:32.764Z,34
2023-05-09T11:59:32.755Z,34
2023-05-09T12:00:32.784Z,34
2023-05-09T12:01:32.763Z,34
2023-05-09T12:02:32.850Z,34
2023-05-09T12:03:32.818Z,34
2023-05-09T12:04:32.939Z,34
2023-05-09T12:05:32.828Z,34
2023-05-09T12:06:32.773Z,34
2023-05-09T12:07:32.744Z,34
2023-05-09T12:08:32.747Z,34
2023-05-09T12:09:32.724Z,34
2023-05-09T12:10:32.762Z,34
2023-05-09T12:11:32.776Z,34
2023-05-09T12:12:32.787Z,34
2023-05-09T12:13:32.918Z,34
2023-05-09T12:14:32.759Z,34
2023-05-09T12:15:32.745Z,33
2023-05-09T12:16:32.829Z,34
2023-05-09T12:17:32.777Z,34
2023-05-09T12:18:32.747Z,34
2023-05-09T12:19:32.727Z,34
2023-05-09T12:20:32.746Z,33
2023-05-09T12:21:32.770Z,33
2023-05-09T12:22:32.772Z,33
2023-05-09T12:23:32.747Z,33
2023-05-09T12:24:32.705Z,33
2023-05-09T12:25:32.759Z,33
2023-05-09T12:26:32.757Z,33
2023-05-09T12:27:32.750Z,33
2023-05-09T12:28:32.729Z,33
2023-05-09T12:29:32.768Z,33
2023-05-09T12:30:32.778Z,33
2023-05-09T12:31:32.932Z,33
2023-05-09T12:32:33.009Z,33
2023-05-09T12:33:32.763Z,33
2023-05-09T12:34:32.750Z,33
2023-05-09T12:35:32.769Z,33
2023-05-09T12:36:32.798Z,33
2023-05-09T12:37:32.812Z,33
2023-05-09T12:38:32.728Z,33
2023-05-09T12:39:32.778Z,33
2023-05-09T12:40:32.753Z,32
2023-05-09T12:41:41.491Z,33
2023-05-09T12:42:32.734Z,33
2023-05-09T12:43:32.806Z,33
2023-05-09T12:44:32.704Z,33
2023-05-09T12:45:32.847Z,33
2023-05-09T12:46:33.532Z,33
2023-05-09T12:47:32.808Z,33
2023-05-09T12:48:32.693Z,33
2023-05-09T12:49:32.761Z,33
2023-05-09T12:50:32.758Z,34
2023-05-09T12:51:32.736Z,34
2023-05-09T12:52:32.739Z,33
2023-05-09T12:53:32.732Z,33
2023-05-09T12:54:32.725Z,33
2023-05-09T12:55:32.929Z,34
2023-05-09T12:56:32.746Z,33
2023-05-09T12:57:32.733Z,34
2023-05-09T12:58:32.744Z,33
2023-05-09T12:59:32.765Z,33
2023-05-09T13:00:32.762Z,33
2023-05-09T13:01:32.797Z,33
2023-05-09T13:02:32.869Z,33
2023-05-09T13:03:32.777Z,33
2023-05-09T13:04:32.695Z,33
2023-05-09T13:05:32.717Z,33
2023-05-09T13:06:32.781Z,34
2023-05-09T13:07:32.742Z,34
2023-05-09T13:08:32.748Z,34
2023-05-09T13:09:32.776Z,34
2023-05-09T13:10:32.719Z,34
2023-05-09T13:11:32.786Z,34
2023-05-09T13:12:32.770Z,34
2023-05-09T13:13:32.764Z,34
2023-05-09T13:14:32.831Z,34
2023-05-09T13:15:32.752Z,34
2023-05-09T13:16:32.797Z,34
2023-05-09T13:17:32.811Z,33
2023-05-09T13:18:32.768Z,33
2023-05-09T13:19:32.754Z,33
2023-05-09T13:20:32.717Z,34
2023-05-09T13:21:32.767Z,33
2023-05-09T13:22:32.795Z,34
2023-05-09T13:23:32.782Z,34
2023-05-09T13:24:33.297Z,34
2023-05-09T13:25:32.733Z,34
2023-05-09T13:26:32.792Z,34
2023-05-09T13:27:32.744Z,35
2023-05-09T13:28:32.717Z,35
2023-05-09T13:29:32.738Z,35
2023-05-09T13:30:32.744Z,35
2023-05-09T13:31:32.790Z,34
2023-05-09T13:32:32.732Z,31
2023-05-09T13:33:32.807Z,31
2023-05-09T13:34:32.731Z,31
2023-05-09T13:35:32.819Z,31
2023-05-09T13:36:33.648Z,31
2023-05-09T13:37:34.549Z,31
2023-05-09T13:38:38.553Z,31
2023-05-09T13:39:42.569Z,32
2023-05-09T13:40:46.521Z,31
2023-05-09T13:41:50.498Z,31
2023-05-09T13:42:54.496Z,31
2023-05-09T13:43:58.510Z,30
2023-05-09T13:45:02.513Z,29
2023-05-09T13:46:06.601Z,29
2023-05-09T13:47:10.513Z,30
2023-05-09T13:48:14.574Z,30
2023-05-09T13:49:18.540Z,29
2023-05-09T13:50:22.514Z,29
2023-05-09T13:51:26.574Z,29
2023-05-09T13:52:30.598Z,29
2023-05-09T13:53:32.793Z,30
2023-05-09T13:54:32.735Z,31
2023-05-09T13:55:32.700Z,31
2023-05-09T13:56:32.776Z,31
2023-05-09T13:57:32.761Z,31
2023-05-09T13:58:32.745Z,31
2023-05-09T13:59:32.778Z,31
2023-05-09T14:00:32.744Z,31
2023-05-09T14:01:32.749Z,31
2023-05-09T14:02:32.801Z,31
2023-05-09T14:03:32.784Z,31
2023-05-09T14:04:32.758Z,30
2023-05-09T14:05:32.718Z,30
2023-05-09T14:06:32.737Z,30
2023-05-09T14:07:32.744Z,30
2023-05-09T14:08:32.762Z,31
2023-05-09T14:09:32.834Z,31
2023-05-09T14:10:32.756Z,31
2023-05-09T14:11:32.733Z,30
2023-05-09T14:12:32.739Z,31
2023-05-09T14:13:32.769Z,31
2023-05-09T14:14:32.720Z,31
2023-05-09T14:15:32.760Z,31
2023-05-09T14:16:32.790Z,31
2023-05-09T14:17:32.766Z,31
2023-05-09T14:18:32.733Z,31